Time;durP1;ratioP1;P1;durP2;ratioP2;P2;SDS_P1;SDS_P2;PMS_P1;PMS_P2;Temp;Humidity;BMP_temperature;BMP_pressure;BME280_temperature;BME280_humidity;BME280_pressure;Samples;Min_cycle;Max_cycle;Signal;HPM_P1;HPM_P2
2022/01/10 00:00:40;;;;;;;6.83;3.30;;;;;2.80;95501.00;;;;8303472;28;20922;-72
2022/01/10 00:04:43;;;;;;;10.60;3.73;;;;;2.80;95502.00;;;;8302532;28;20244;-72
2022/01/10 00:08:48;;;;;;;11.57;4.10;;;;;2.70;95498.00;;;;8313672;28;20240;-72
2022/01/10 00:12:51;;;;;;;9.20;3.50;;;;;2.70;95494.00;;;;8304984;28;20260;-72
2022/01/10 00:16:54;;;;;;;10.87;3.77;;;;;2.70;95496.00;;;;8308595;28;20264;-72
2022/01/10 00:20:58;;;;;;;11.23;3.67;;;;;2.80;95500.00;;;;8310021;28;20281;-73
2022/01/10 00:25:02;;;;;;;10.60;4.00;;;;;2.70;95496.00;;;;8308235;28;20234;-72
2022/01/10 00:29:05;;;;;;;9.17;3.53;;;;;2.70;95503.00;;;;8304238;28;20315;-72
2022/01/10 00:33:08;;;;;;;7.83;3.67;;;;;2.70;95507.00;;;;8308949;28;20678;-72
2022/01/10 00:37:12;;;;;;;14.30;4.23;;;;;2.70;95507.00;;;;8309246;28;20311;-72
2022/01/10 00:41:16;;;;;;;7.00;3.97;;;;;2.60;95510.00;;;;8309789;28;20242;-71
2022/01/10 00:45:23;;;;;;;7.20;3.90;;;;;2.50;95512.00;;;;8305997;28;20323;-71
2022/01/10 00:49:27;;;;;;;10.47;3.70;;;;;2.50;95506.00;;;;8307932;28;20244;-72
2022/01/10 00:53:30;;;;;;;6.40;3.70;;;;;2.40;95507.00;;;;8310667;28;20270;-72
2022/01/10 00:57:35;;;;;;;8.37;3.67;;;;;2.40;95514.00;;;;8308768;28;20339;-72
2022/01/10 01:01:38;;;;;;;10.30;3.90;;;;;2.30;95523.00;;;;8309889;28;20571;-71
2022/01/10 01:05:43;;;;;;;10.90;3.87;;;;;2.30;95526.00;;;;8307458;28;20227;-72
2022/01/10 01:09:54;;;;;;;10.80;4.00;;;;;2.30;95534.00;;;;8315835;28;20256;-72
2022/01/10 01:14:05;;;;;;;17.13;4.00;;;;;2.30;95541.00;;;;8318796;28;20645;-72
2022/01/10 01:18:18;;;;;;;7.90;3.53;;;;;2.30;95543.00;;;;8316807;28;20665;-72
2022/01/10 01:26:43;;;;;;;17.57;4.20;;;;;2.30;95575.00;;;;8317552;28;20252;-72
2022/01/10 01:30:48;;;;;;;8.83;4.13;;;;;2.40;95567.00;;;;8317013;28;20320;-72
2022/01/10 01:34:55;;;;;;;14.57;4.57;;;;;2.40;95582.00;;;;8316826;28;20221;-72
2022/01/10 01:38:59;;;;;;;9.17;4.27;;;;;2.50;95579.00;;;;8315230;28;21576;-72
2022/01/10 01:43:02;;;;;;;17.47;4.47;;;;;2.50;95582.00;;;;8300650;28;20230;-73
2022/01/10 01:47:07;;;;;;;18.37;4.70;;;;;2.60;95597.00;;;;8317492;28;21294;-72
2022/01/10 01:51:10;;;;;;;13.90;4.70;;;;;2.60;95598.00;;;;8315371;28;20347;-71
2022/01/10 01:55:13;;;;;;;15.90;4.70;;;;;2.60;95608.00;;;;8316804;28;20312;-71
2022/01/10 01:59:17;;;;;;;11.90;4.30;;;;;2.60;95615.00;;;;8317366;28;20280;-72
2022/01/10 02:03:22;;;;;;;14.00;4.50;;;;;2.70;95621.00;;;;8316878;28;20728;-72
2022/01/10 02:07:25;;;;;;;10.00;4.60;;;;;2.70;95613.00;;;;8310766;28;20263;-72
2022/01/10 02:11:28;;;;;;;12.03;4.47;;;;;2.60;95613.00;;;;8316178;28;20685;-72
2022/01/10 02:15:36;;;;;;;10.87;4.40;;;;;2.60;95619.00;;;;8317058;28;20257;-72
2022/01/10 02:19:40;;;;;;;15.23;5.10;;;;;2.60;95628.00;;;;8292911;28;20709;-71
2022/01/10 02:23:45;;;;;;;15.47;5.23;;;;;2.70;95630.00;;;;8306153;28;20310;-72
2022/01/10 02:27:48;;;;;;;9.50;4.57;;;;;2.70;95642.00;;;;8299548;28;20230;-72
2022/01/10 02:31:52;;;;;;;18.33;4.87;;;;;2.60;95639.00;;;;8306956;28;20227;-72
2022/01/10 02:36:03;;;;;;;14.53;4.90;;;;;2.60;95639.00;;;;8298919;28;20232;-72
2022/01/10 02:40:14;;;;;;;11.77;4.93;;;;;2.50;95651.00;;;;8304542;28;20879;-72
2022/01/10 02:44:18;;;;;;;18.73;5.20;;;;;2.50;95657.00;;;;8303478;28;20306;-73
2022/01/10 02:48:21;;;;;;;12.47;4.67;;;;;2.40;95665.00;;;;8304951;28;20306;-72
2022/01/10 02:52:24;;;;;;;16.57;5.17;;;;;2.30;95671.00;;;;8298528;28;20685;-71
2022/01/10 02:56:29;;;;;;;21.47;6.07;;;;;2.30;95682.00;;;;8313630;28;20227;-71
2022/01/10 03:00:33;;;;;;;25.07;6.97;;;;;2.40;95687.00;;;;8352064;23;20319;-71
2022/01/10 03:04:37;;;;;;;19.20;6.93;;;;;2.50;95704.00;;;;8283514;22;20238;-71
2022/01/10 03:08:40;;;;;;;15.80;6.43;;;;;2.60;95719.00;;;;8272443;28;20739;-72
2022/01/10 03:12:45;;;;;;;19.47;6.70;;;;;2.70;95719.00;;;;8275038;28;20692;-71
2022/01/10 03:16:48;;;;;;;19.40;6.70;;;;;2.70;95718.00;;;;8274183;28;20261;-72
2022/01/10 03:20:51;;;;;;;23.17;6.27;;;;;2.70;95728.00;;;;8270981;28;20316;-71
2022/01/10 03:24:55;;;;;;;15.97;6.70;;;;;2.80;95737.00;;;;8276429;28;20748;-70
2022/01/10 03:29:00;;;;;;;22.20;6.60;;;;;2.80;95741.00;;;;8278067;28;20239;-70
2022/01/10 03:33:04;;;;;;;25.43;7.13;;;;;2.90;95743.00;;;;8268325;28;20252;-70
2022/01/10 03:37:08;;;;;;;20.40;6.60;;;;;3.00;95754.00;;;;8274133;28;20318;-71
2022/01/10 03:41:11;;;;;;;19.10;7.13;;;;;3.00;95755.00;;;;8276500;28;20242;-70
2022/01/10 03:45:16;;;;;;;18.83;7.60;;;;;3.00;95759.00;;;;8310849;28;20319;-70
2022/01/10 03:49:19;;;;;;;21.97;6.73;;;;;3.00;95762.00;;;;8310861;28;26673;-70
2022/01/10 03:53:23;;;;;;;30.23;7.70;;;;;3.00;95772.00;;;;8307653;28;20323;-71
2022/01/10 03:57:26;;;;;;;29.27;6.97;;;;;3.10;95762.00;;;;8308059;28;21001;-70
2022/01/10 04:01:31;;;;;;;20.30;7.87;;;;;3.00;95771.00;;;;8313357;28;21791;-71
2022/01/10 04:05:36;;;;;;;15.97;6.73;;;;;3.00;95772.00;;;;8307398;28;20239;-70
2022/01/10 04:09:39;;;;;;;18.57;7.00;;;;;3.10;95777.00;;;;8301062;28;20275;-71
2022/01/10 04:13:42;;;;;;;24.17;7.13;;;;;3.10;95780.00;;;;8308246;28;20303;-70
2022/01/10 04:17:52;;;;;;;30.67;7.27;;;;;3.20;95789.00;;;;8305413;28;20645;-71
2022/01/10 04:21:55;;;;;;;25.20;7.23;;;;;3.20;95796.00;;;;8306289;28;20818;-71
2022/01/10 04:25:58;;;;;;;23.10;7.93;;;;;3.30;95806.00;;;;8306580;28;20299;-71
2022/01/10 04:30:02;;;;;;;25.93;6.87;;;;;3.30;95815.00;;;;8297553;28;20259;-71
2022/01/10 04:34:06;;;;;;;24.80;6.90;;;;;3.30;95811.00;;;;8305292;28;20314;-71
2022/01/10 04:38:10;;;;;;;26.27;7.20;;;;;3.30;95814.00;;;;8309798;28;20708;-70
2022/01/10 04:42:16;;;;;;;23.60;7.77;;;;;3.30;95830.00;;;;8301766;28;20249;-71
2022/01/10 04:46:19;;;;;;;27.20;7.40;;;;;3.30;95827.00;;;;8300165;28;20257;-71
2022/01/10 04:50:56;;;;;;;24.53;8.17;;;;;3.20;95829.00;;;;8306174;28;20240;-71
2022/01/10 04:55:00;;;;;;;21.47;7.20;;;;;3.20;95830.00;;;;8301606;28;20407;-71
2022/01/10 04:59:03;;;;;;;18.23;6.73;;;;;3.20;95845.00;;;;8316957;28;20269;-71
2022/01/10 05:03:06;;;;;;;27.20;6.77;;;;;3.10;95860.00;;;;8308863;28;20269;-71
2022/01/10 05:07:11;;;;;;;21.43;7.17;;;;;3.10;95854.00;;;;8304461;28;20262;-71
2022/01/10 05:11:16;;;;;;;20.53;7.23;;;;;3.10;95861.00;;;;8309726;28;20768;-71
2022/01/10 05:15:19;;;;;;;22.60;7.47;;;;;3.00;95852.00;;;;8298125;28;20696;-71
2022/01/10 05:19:23;;;;;;;21.90;6.77;;;;;3.00;95858.00;;;;8298230;28;20236;-70
2022/01/10 05:23:32;;;;;;;23.90;7.27;;;;;3.00;95863.00;;;;8304983;28;20629;-71
2022/01/10 05:27:35;;;;;;;20.40;8.33;;;;;2.90;95867.00;;;;8292122;28;20229;-71
2022/01/10 05:31:38;;;;;;;30.23;8.10;;;;;2.90;95879.00;;;;8301617;28;20376;-70
2022/01/10 05:35:44;;;;;;;20.20;7.40;;;;;2.90;95882.00;;;;8284311;28;20240;-71
2022/01/10 05:39:48;;;;;;;35.57;13.37;;;;;2.80;95883.00;;;;8294826;28;20738;-71
2022/01/10 05:43:55;;;;;;;29.93;9.60;;;;;2.80;95893.00;;;;8298049;28;20279;-71
2022/01/10 05:48:08;;;;;;;34.33;10.23;;;;;2.80;95903.00;;;;8298982;28;20241;-71
2022/01/10 05:52:11;;;;;;;38.30;14.80;;;;;2.70;95905.00;;;;8297427;28;20310;-71
2022/01/10 05:56:18;;;;;;;28.53;9.17;;;;;2.70;95907.00;;;;8294359;28;20232;-70
2022/01/10 06:00:21;;;;;;;43.43;16.67;;;;;2.70;95912.00;;;;8299148;28;20255;-70
2022/01/10 06:04:25;;;;;;;32.30;9.10;;;;;2.70;95920.00;;;;8295642;28;20312;-70
2022/01/10 06:08:28;;;;;;;38.13;12.97;;;;;2.70;95924.00;;;;8297348;28;20217;-70
2022/01/10 06:12:33;;;;;;;23.70;7.67;;;;;2.60;95926.00;;;;8303473;28;20816;-70
2022/01/10 06:16:36;;;;;;;23.87;8.07;;;;;2.60;95942.00;;;;8305514;28;20256;-70
2022/01/10 06:20:40;;;;;;;35.83;11.93;;;;;2.60;95948.00;;;;8292216;28;20328;-70
2022/01/10 06:24:44;;;;;;;41.37;12.87;;;;;2.50;95952.00;;;;8302524;28;20241;-70
2022/01/10 06:28:49;;;;;;;65.90;23.77;;;;;2.60;95955.00;;;;8299589;28;20328;-70
2022/01/10 06:32:52;;;;;;;63.47;18.63;;;;;2.60;95964.00;;;;8308204;28;20703;-69
2022/01/10 06:36:55;;;;;;;57.17;19.57;;;;;2.60;95974.00;;;;8307945;28;20261;-70
2022/01/10 06:40:58;;;;;;;27.80;8.83;;;;;2.50;95966.00;;;;8307043;28;20321;-69
2022/01/10 06:45:03;;;;;;;31.77;9.83;;;;;2.40;95977.00;;;;8307811;28;20331;-70
2022/01/10 06:49:06;;;;;;;32.43;9.17;;;;;2.30;95983.00;;;;8303889;28;20314;-69
2022/01/10 06:53:10;;;;;;;24.37;8.50;;;;;2.20;95989.00;;;;8302308;28;20232;-70
2022/01/10 06:57:13;;;;;;;22.00;8.30;;;;;2.10;95993.00;;;;8293176;28;20645;-70
2022/01/10 07:01:19;;;;;;;24.70;8.87;;;;;2.00;95997.00;;;;8295077;28;20273;-69
2022/01/10 07:05:22;;;;;;;23.67;8.70;;;;;1.90;96003.00;;;;8288676;28;20235;-70
2022/01/10 07:09:26;;;;;;;25.33;8.60;;;;;1.80;96016.00;;;;8293568;28;20232;-73
2022/01/10 07:13:29;;;;;;;21.40;9.47;;;;;1.70;96017.00;;;;8292227;28;20229;-72
2022/01/10 07:17:34;;;;;;;27.70;9.50;;;;;1.50;96029.00;;;;8316380;28;20251;-73
2022/01/10 07:21:39;;;;;;;19.70;8.27;;;;;1.40;96037.00;;;;8303370;28;20324;-73
2022/01/10 07:25:42;;;;;;;24.70;9.07;;;;;1.10;96050.00;;;;8313825;28;20253;-72
2022/01/10 07:29:49;;;;;;;21.27;9.37;;;;;1.10;96054.00;;;;8306060;28;20229;-73
2022/01/10 07:33:54;;;;;;;42.63;9.33;;;;;1.00;96068.00;;;;8307638;28;20221;-73
2022/01/10 07:37:58;;;;;;;19.30;7.13;;;;;0.80;96076.00;;;;8310160;28;20316;-73
2022/01/10 07:42:01;;;;;;;24.60;9.40;;;;;0.70;96090.00;;;;8304698;28;20400;-73
2022/01/10 07:46:05;;;;;;;48.13;10.17;;;;;0.70;96099.00;;;;8297552;28;20745;-71
2022/01/10 07:50:10;;;;;;;27.30;10.03;;;;;0.70;96114.00;;;;8303452;28;20236;-74
2022/01/10 07:54:14;;;;;;;21.63;10.23;;;;;0.90;96110.00;;;;8303246;28;20403;-74
2022/01/10 07:58:17;;;;;;;27.73;10.30;;;;;1.20;96115.00;;;;8302267;28;20249;-74
2022/01/10 08:02:21;;;;;;;27.27;10.47;;;;;1.60;96122.00;;;;8307665;28;20309;-73
2022/01/10 08:06:26;;;;;;;33.33;10.27;;;;;1.90;96128.00;;;;8307832;28;20273;-73
2022/01/10 08:10:29;;;;;;;32.93;12.53;;;;;2.30;96133.00;;;;8308677;28;20237;-73
2022/01/10 08:14:33;;;;;;;26.67;10.00;;;;;2.60;96135.00;;;;8313534;28;20228;-73
2022/01/10 08:18:36;;;;;;;27.03;12.27;;;;;2.90;96150.00;;;;8304886;28;20875;-74
2022/01/10 08:22:41;;;;;;;24.07;10.13;;;;;3.10;96153.00;;;;8308079;28;20232;-74
2022/01/10 08:26:44;;;;;;;27.57;11.27;;;;;3.30;96161.00;;;;8309035;28;20735;-76
2022/01/10 08:30:47;;;;;;;26.50;11.00;;;;;3.50;96189.00;;;;8311078;28;20266;-72
2022/01/10 08:34:51;;;;;;;21.17;9.87;;;;;3.70;96178.00;;;;8311087;28;20261;-71
2022/01/10 08:38:56;;;;;;;20.23;9.67;;;;;3.80;96179.00;;;;8301971;28;20257;-69
2022/01/10 08:43:06;;;;;;;28.33;10.37;;;;;4.00;96190.00;;;;8300402;28;20395;-70
2022/01/10 08:47:09;;;;;;;22.67;10.13;;;;;4.20;96194.00;;;;8303111;28;20253;-72
2022/01/10 08:51:12;;;;;;;21.27;8.90;;;;;4.30;96206.00;;;;8302795;28;21005;-69
2022/01/10 08:55:18;;;;;;;23.03;9.97;;;;;4.40;96203.00;;;;8307850;28;20252;-70
2022/01/10 08:59:21;;;;;;;19.20;10.00;;;;;4.40;96214.00;;;;8304915;28;20257;-70
2022/01/10 09:03:25;;;;;;;23.87;11.20;;;;;4.40;96219.00;;;;8305271;28;20258;-70
2022/01/10 09:07:28;;;;;;;29.70;10.73;;;;;4.50;96233.00;;;;8310887;28;20255;-71
2022/01/10 09:11:32;;;;;;;28.50;11.10;;;;;4.60;96235.00;;;;8304914;28;20250;-69
2022/01/10 09:15:37;;;;;;;19.73;9.93;;;;;4.80;96243.00;;;;8304839;28;20264;-71
2022/01/10 09:19:41;;;;;;;20.17;9.20;;;;;4.80;96256.00;;;;8302381;28;20271;-69
2022/01/10 09:23:45;;;;;;;21.57;10.03;;;;;5.00;96275.00;;;;8304974;28;20320;-70
2022/01/10 09:27:49;;;;;;;21.30;9.20;;;;;5.20;96270.00;;;;8301568;28;20808;-70
2022/01/10 09:31:53;;;;;;;16.93;9.63;;;;;5.30;96283.00;;;;8302457;28;21053;-70
2022/01/10 09:35:56;;;;;;;21.60;9.40;;;;;5.40;96293.00;;;;8298238;28;20343;-70
2022/01/10 09:39:59;;;;;;;25.97;10.20;;;;;5.50;96297.00;;;;8299681;28;20256;-70
2022/01/10 09:44:06;;;;;;;22.20;9.60;;;;;5.70;96299.00;;;;8302673;28;20235;-73
2022/01/10 09:48:10;;;;;;;21.70;8.93;;;;;5.90;96306.00;;;;8299562;28;20287;-70
2022/01/10 09:52:15;;;;;;;23.43;9.30;;;;;6.00;96309.00;;;;8301154;28;20313;-71
2022/01/10 09:56:19;;;;;;;17.50;9.10;;;;;6.30;96321.00;;;;8303763;28;20228;-72
2022/01/10 10:00:24;;;;;;;11.20;6.80;;;;;6.30;96336.00;;;;8293665;28;20228;-71
2022/01/10 10:04:27;;;;;;;14.47;7.73;;;;;6.10;96332.00;;;;8300291;28;20304;-69
2022/01/10 10:08:31;;;;;;;15.37;8.50;;;;;6.30;96349.00;;;;8297430;28;20256;-69
2022/01/10 10:12:35;;;;;;;14.17;6.60;;;;;6.00;96355.00;;;;8303969;28;20619;-70
2022/01/10 10:16:47;;;;;;;12.53;7.27;;;;;5.70;96356.00;;;;8299646;28;20261;-70
2022/01/10 10:20:51;;;;;;;11.27;6.40;;;;;5.50;96370.00;;;;8297274;28;20228;-70
2022/01/10 10:24:55;;;;;;;14.53;7.37;;;;;5.40;96375.00;;;;8297354;28;20258;-71
2022/01/10 10:28:59;;;;;;;11.37;6.53;;;;;5.30;96370.00;;;;8295709;28;20309;-70
2022/01/10 10:33:17;;;;;;;16.63;7.77;;;;;5.10;96386.00;;;;8303348;28;20230;-70
2022/01/10 10:37:21;;;;;;;17.43;7.53;;;;;5.00;96385.00;;;;8305309;28;20957;-70
2022/01/10 10:41:25;;;;;;;19.07;9.30;;;;;5.00;96391.00;;;;8299716;28;20240;-70
2022/01/10 10:45:28;;;;;;;12.97;7.43;;;;;4.90;96393.00;;;;8293810;28;20261;-70
2022/01/10 10:49:38;;;;;;;12.93;7.30;;;;;4.90;96400.00;;;;8303940;28;20730;-71
2022/01/10 10:53:41;;;;;;;16.10;8.10;;;;;4.90;96408.00;;;;8304389;28;20260;-69
2022/01/10 10:57:48;;;;;;;14.07;8.03;;;;;4.90;96405.00;;;;8302831;28;20228;-69
2022/01/10 11:01:54;;;;;;;16.57;7.93;;;;;5.00;96411.00;;;;8298535;28;20256;-70
2022/01/10 11:06:06;;;;;;;20.37;7.57;;;;;5.00;96416.00;;;;8302688;28;20760;-70
2022/01/10 11:10:10;;;;;;;15.93;7.17;;;;;5.00;96425.00;;;;8305005;28;20697;-69
2022/01/10 11:14:14;;;;;;;13.70;7.33;;;;;5.00;96437.00;;;;8303845;28;20221;-69
2022/01/10 11:18:17;;;;;;;15.80;7.27;;;;;5.00;96425.00;;;;8305777;28;20252;-70
2022/01/10 11:22:23;;;;;;;11.50;6.87;;;;;5.00;96444.00;;;;8293603;28;20327;-71
2022/01/10 11:26:37;;;;;;;13.67;6.93;;;;;5.00;96435.00;;;;8294929;28;20252;-69
2022/01/10 11:30:42;;;;;;;13.40;5.80;;;;;5.00;96443.00;;;;8303797;28;20307;-70
2022/01/10 11:34:47;;;;;;;13.00;6.93;;;;;5.10;96444.00;;;;8295370;28;20232;-70
2022/01/10 11:38:54;;;;;;;10.80;5.70;;;;;5.20;96451.00;;;;8301291;28;20320;-70
2022/01/10 11:42:59;;;;;;;10.93;5.80;;;;;5.30;96463.00;;;;8297640;28;20752;-70
2022/01/10 11:47:03;;;;;;;11.43;6.00;;;;;5.20;96452.00;;;;8301945;28;20229;-71
2022/01/10 11:51:13;;;;;;;12.80;5.83;;;;;5.20;96454.00;;;;8292731;28;20262;-69
2022/01/10 11:55:18;;;;;;;9.73;4.80;;;;;5.20;96456.00;;;;8301700;28;20332;-69
2022/01/10 11:59:24;;;;;;;16.47;5.40;;;;;5.20;96459.00;;;;8304788;28;20300;-71
2022/01/10 12:03:27;;;;;;;11.77;5.10;;;;;5.20;96462.00;;;;8300020;28;20255;-70
2022/01/10 12:07:31;;;;;;;9.00;4.73;;;;;5.10;96460.00;;;;8299603;28;20599;-69
2022/01/10 12:11:57;;;;;;;8.17;4.33;;;;;5.10;96463.00;;;;8304337;28;20887;-70
2022/01/10 12:16:01;;;;;;;8.30;4.37;;;;;5.10;96460.00;;;;8311758;28;20238;-70
2022/01/10 12:20:08;;;;;;;8.30;4.67;;;;;5.10;96471.00;;;;8304384;28;20249;-69
2022/01/10 12:24:11;;;;;;;13.63;4.80;;;;;5.00;96469.00;;;;8301992;28;20251;-69
2022/01/10 12:28:16;;;;;;;8.57;3.83;;;;;5.00;96475.00;;;;8298969;28;20304;-66
2022/01/10 12:32:19;;;;;;;8.57;3.27;;;;;4.90;96479.00;;;;8297477;28;20221;-66
2022/01/10 12:36:25;;;;;;;6.97;4.27;;;;;4.80;96487.00;;;;8306415;28;20656;-65
2022/01/10 12:40:31;;;;;;;4.70;3.47;;;;;4.70;96491.00;;;;8305890;28;20314;-66
2022/01/10 12:44:36;;;;;;;10.60;3.60;;;;;4.60;96504.00;;;;8297087;28;20257;-67
2022/01/10 12:48:41;;;;;;;6.13;3.17;;;;;4.50;96499.00;;;;8310168;28;20267;-66
2022/01/10 12:52:44;;;;;;;6.33;3.53;;;;;4.50;96518.00;;;;8306379;28;20304;-65
2022/01/10 12:56:49;;;;;;;5.43;3.27;;;;;4.40;96528.00;;;;8298463;28;20559;-67
2022/01/10 13:00:54;;;;;;;9.20;3.90;;;;;4.40;96524.00;;;;8306583;28;20342;-66
2022/01/10 13:04:58;;;;;;;4.50;3.63;;;;;4.40;96524.00;;;;8308373;28;20237;-67
2022/01/10 13:09:02;;;;;;;7.73;3.33;;;;;4.30;96533.00;;;;8303518;28;20360;-66
2022/01/10 13:13:05;;;;;;;6.23;3.90;;;;;4.30;96534.00;;;;8304502;28;20678;-66
2022/01/10 13:17:12;;;;;;;5.93;3.60;;;;;4.40;96554.00;;;;8303904;28;20632;-67
2022/01/10 13:21:26;;;;;;;8.00;4.10;;;;;4.60;96553.00;;;;8296067;28;20332;-66
2022/01/10 13:25:33;;;;;;;5.90;3.23;;;;;4.90;96569.00;;;;8297088;28;20256;-65
2022/01/10 13:29:39;;;;;;;4.87;3.20;;;;;5.00;96575.00;;;;8301509;28;20248;-67
2022/01/10 13:33:46;;;;;;;8.37;3.73;;;;;4.90;96580.00;;;;8308219;28;20257;-68
2022/01/10 13:37:56;;;;;;;6.73;3.27;;;;;4.80;96593.00;;;;8293539;28;20650;-65
2022/01/10 13:42:00;;;;;;;4.93;3.37;;;;;4.90;96590.00;;;;8305508;28;20248;-67
2022/01/10 13:46:06;;;;;;;10.27;3.70;;;;;5.00;96604.00;;;;8298890;28;20627;-66
2022/01/10 13:50:22;;;;;;;4.97;3.23;;;;;5.20;96595.00;;;;8295862;28;20828;-67
2022/01/10 13:54:30;;;;;;;5.63;3.27;;;;;5.40;96606.00;;;;8297510;28;20676;-66
2022/01/10 13:58:35;;;;;;;4.43;3.10;;;;;5.30;96604.00;;;;8303479;28;20253;-67
2022/01/10 14:02:38;;;;;;;4.23;3.33;;;;;5.20;96604.00;;;;8300046;28;20257;-66
2022/01/10 14:06:43;;;;;;;5.80;3.43;;;;;5.10;96620.00;;;;8299938;28;20228;-71
2022/01/10 14:10:46;;;;;;;5.27;3.20;;;;;5.20;96616.00;;;;8303779;28;20259;-67
2022/01/10 14:14:54;;;;;;;4.97;3.07;;;;;5.10;96626.00;;;;8304674;28;20317;-67
2022/01/10 14:18:57;;;;;;;7.73;3.53;;;;;5.10;96632.00;;;;8298899;28;20749;-66
2022/01/10 14:23:01;;;;;;;7.97;4.30;;;;;5.10;96646.00;;;;8298805;28;20244;-67
2022/01/10 14:27:05;;;;;;;9.20;5.53;;;;;5.20;96663.00;;;;8307324;28;20896;-67
2022/01/10 14:31:09;;;;;;;9.87;5.23;;;;;5.10;96661.00;;;;8300357;28;20220;-67
2022/01/10 14:35:12;;;;;;;10.27;5.90;;;;;5.00;96661.00;;;;8289756;28;20547;-70
2022/01/10 14:39:17;;;;;;;6.83;4.27;;;;;5.00;96673.00;;;;8298975;28;20286;-68
2022/01/10 14:43:20;;;;;;;9.93;4.30;;;;;4.90;96678.00;;;;8292909;28;20272;-69
2022/01/10 14:47:26;;;;;;;7.60;4.07;;;;;4.80;96684.00;;;;8298382;28;20235;-69
2022/01/10 14:51:29;;;;;;;5.03;3.90;;;;;4.80;96678.00;;;;8304445;28;20841;-69
2022/01/10 14:55:34;;;;;;;7.67;4.27;;;;;4.70;96678.00;;;;8298677;28;20362;-68
2022/01/10 14:59:38;;;;;;;8.67;4.07;;;;;4.70;96687.00;;;;8302074;28;20323;-69
2022/01/10 15:03:41;;;;;;;7.03;4.10;;;;;4.60;96683.00;;;;8305020;28;20311;-71
2022/01/10 15:07:44;;;;;;;8.77;3.87;;;;;4.60;96704.00;;;;8300872;28;20284;-68
2022/01/10 15:11:50;;;;;;;8.60;3.80;;;;;4.60;96704.00;;;;8306343;28;20244;-68
2022/01/10 15:15:53;;;;;;;6.67;3.73;;;;;4.60;96709.00;;;;8294746;28;20352;-69
2022/01/10 15:19:56;;;;;;;6.03;3.77;;;;;4.50;96716.00;;;;8303835;28;20257;-69
2022/01/10 15:24:00;;;;;;;7.07;4.03;;;;;4.50;96723.00;;;;8303414;28;20339;-71
2022/01/10 15:28:05;;;;;;;4.60;3.90;;;;;4.50;96729.00;;;;8311124;28;20721;-71
2022/01/10 15:32:08;;;;;;;9.40;4.33;;;;;4.50;96731.00;;;;8312352;28;20312;-71
2022/01/10 15:36:12;;;;;;;6.30;4.03;;;;;4.40;96734.00;;;;8305463;28;20305;-68
2022/01/10 15:40:15;;;;;;;7.17;3.97;;;;;4.40;96736.00;;;;8310042;28;20271;-72
2022/01/10 15:44:20;;;;;;;7.53;4.20;;;;;4.40;96741.00;;;;8302596;28;20262;-70
2022/01/10 15:48:24;;;;;;;8.33;4.37;;;;;4.40;96753.00;;;;8304181;28;20265;-70
2022/01/10 15:52:27;;;;;;;6.20;4.40;;;;;4.40;96768.00;;;;8318825;28;20312;-70
2022/01/10 15:56:31;;;;;;;12.30;4.70;;;;;4.40;96767.00;;;;8318981;28;20766;-69
2022/01/10 16:00:40;;;;;;;5.27;3.90;;;;;4.40;96779.00;;;;8315793;28;20731;-70
2022/01/10 16:04:44;;;;;;;6.30;4.30;;;;;4.40;96780.00;;;;8310474;28;20243;-70
2022/01/10 16:08:47;;;;;;;10.07;4.47;;;;;4.40;96789.00;;;;8312189;28;20252;-69
2022/01/10 16:12:54;;;;;;;8.30;4.57;;;;;4.30;96793.00;;;;8303618;28;20229;-70
2022/01/10 16:16:59;;;;;;;6.63;3.97;;;;;4.30;96794.00;;;;8309723;28;20225;-70
2022/01/10 16:21:02;;;;;;;5.00;3.97;;;;;4.30;96805.00;;;;8314035;28;20263;-73
2022/01/10 16:25:06;;;;;;;5.93;4.73;;;;;4.20;96820.00;;;;8303302;28;20233;-71
2022/01/10 16:29:10;;;;;;;8.87;4.50;;;;;4.20;96823.00;;;;8314005;28;20227;-70
2022/01/10 16:33:29;;;;;;;16.23;7.30;;;;;4.20;96819.00;;;;8298339;28;20354;-70
2022/01/10 16:37:33;;;;;;;7.47;4.37;;;;;4.20;96827.00;;;;8312242;28;20594;-70
2022/01/10 16:41:38;;;;;;;8.57;5.00;;;;;4.10;96834.00;;;;8304087;28;20679;-71
2022/01/10 16:45:43;;;;;;;6.77;4.77;;;;;4.10;96834.00;;;;8309078;28;20614;-71
2022/01/10 16:49:47;;;;;;;7.23;4.37;;;;;4.20;96840.00;;;;8307483;28;20325;-70
2022/01/10 16:53:53;;;;;;;9.53;5.57;;;;;4.10;96853.00;;;;8310588;28;20271;-69
2022/01/10 16:57:56;;;;;;;8.90;4.80;;;;;4.20;96856.00;;;;8302098;28;20644;-69
2022/01/10 17:01:59;;;;;;;10.17;4.67;;;;;4.10;96870.00;;;;8298598;28;20658;-69
2022/01/10 17:06:07;;;;;;;7.43;4.70;;;;;4.10;96880.00;;;;8301676;28;20233;-68
2022/01/10 17:10:13;;;;;;;9.73;5.93;;;;;4.10;96884.00;;;;8298989;28;20218;-68
2022/01/10 17:14:16;;;;;;;10.23;5.70;;;;;4.10;96889.00;;;;8304726;28;20252;-69
2022/01/10 17:18:19;;;;;;;11.00;6.17;;;;;4.10;96894.00;;;;8303312;28;20324;-68
2022/01/10 17:22:24;;;;;;;13.33;5.80;;;;;4.10;96898.00;;;;8296171;28;20304;-68
2022/01/10 17:26:28;;;;;;;9.87;5.50;;;;;4.10;96902.00;;;;8303462;28;20278;-69
2022/01/10 17:30:31;;;;;;;14.57;6.30;;;;;4.10;96910.00;;;;8294717;28;20668;-68
2022/01/10 17:34:35;;;;;;;12.03;5.57;;;;;4.10;96907.00;;;;8300598;28;20304;-70
2022/01/10 17:38:39;;;;;;;12.70;5.40;;;;;4.10;96912.00;;;;8302924;28;20258;-70
2022/01/10 17:42:45;;;;;;;12.73;5.70;;;;;4.10;96917.00;;;;8290698;28;20265;-68
2022/01/10 17:46:48;;;;;;;11.67;6.80;;;;;4.20;96925.00;;;;8305167;28;20925;-70
2022/01/10 17:50:54;;;;;;;10.73;5.70;;;;;4.10;96932.00;;;;8302699;28;20697;-71
2022/01/10 17:54:59;;;;;;;11.30;6.60;;;;;4.20;96940.00;;;;8292402;28;20266;-70
2022/01/10 17:59:02;;;;;;;10.07;5.73;;;;;4.20;96946.00;;;;8306045;28;20312;-71
2022/01/10 18:03:06;;;;;;;11.03;6.63;;;;;4.20;96945.00;;;;8307053;28;20723;-68
2022/01/10 18:07:09;;;;;;;15.57;8.27;;;;;4.20;96963.00;;;;8310975;28;20231;-71
2022/01/10 18:11:14;;;;;;;12.80;6.13;;;;;4.10;96962.00;;;;8298749;28;20234;-70
2022/01/10 18:15:18;;;;;;;11.67;5.73;;;;;4.10;96969.00;;;;8310049;28;20674;-70
2022/01/10 18:19:21;;;;;;;10.73;6.03;;;;;4.10;96973.00;;;;8313231;28;20251;-70
2022/01/10 18:23:24;;;;;;;11.83;6.60;;;;;4.10;96979.00;;;;8309874;28;20916;-68
2022/01/10 18:27:30;;;;;;;9.57;6.10;;;;;4.10;96993.00;;;;8307399;28;20222;-69
2022/01/10 18:31:34;;;;;;;10.47;5.97;;;;;4.10;96989.00;;;;8303352;28;21031;-69
2022/01/10 18:35:37;;;;;;;10.03;5.97;;;;;4.10;96998.00;;;;8313866;28;20255;-71
2022/01/10 18:39:40;;;;;;;13.30;6.80;;;;;4.10;97007.00;;;;8298309;28;20310;-70
2022/01/10 18:43:45;;;;;;;14.87;6.93;;;;;4.00;97014.00;;;;8302929;28;20229;-68
2022/01/10 18:47:48;;;;;;;15.00;7.43;;;;;4.00;97019.00;;;;8311530;28;20260;-70
2022/01/10 18:51:52;;;;;;;13.97;6.40;;;;;4.00;97024.00;;;;8303031;28;20252;-69
2022/01/10 18:56:15;;;;;;;12.00;6.87;;;;;4.00;97024.00;;;;8297826;28;20312;-67
2022/01/10 19:00:34;;;;;;;15.97;8.40;;;;;3.90;97032.00;;;;8263983;28;20282;-69
2022/01/10 19:04:38;;;;;;;15.40;8.13;;;;;4.00;97048.00;;;;8308538;28;20236;-68
2022/01/10 19:08:41;;;;;;;20.10;9.20;;;;;3.90;97042.00;;;;8297376;28;20326;-68
2022/01/10 19:12:44;;;;;;;19.30;8.80;;;;;3.90;97043.00;;;;8308970;28;20252;-68
2022/01/10 19:16:49;;;;;;;14.30;8.23;;;;;4.00;97049.00;;;;8302244;28;21032;-69
2022/01/10 19:20:53;;;;;;;21.73;10.33;;;;;4.00;97053.00;;;;8303093;28;20240;-68
2022/01/10 19:24:56;;;;;;;19.27;10.07;;;;;3.90;97056.00;;;;8302470;28;20267;-68
2022/01/10 19:29:00;;;;;;;16.10;7.50;;;;;3.90;97060.00;;;;8294367;28;20279;-68
2022/01/10 19:33:05;;;;;;;21.57;10.13;;;;;3.90;97072.00;;;;8308591;28;20272;-68
2022/01/10 19:37:08;;;;;;;18.33;8.53;;;;;3.90;97074.00;;;;8302073;28;20263;-68
2022/01/10 19:41:11;;;;;;;17.77;8.53;;;;;3.90;97080.00;;;;8298133;28;20813;-69
2022/01/10 19:45:15;;;;;;;16.07;8.20;;;;;3.80;97076.00;;;;8291558;28;20308;-68
2022/01/10 19:49:19;;;;;;;20.33;8.63;;;;;3.90;97076.00;;;;8298393;28;20303;-68
2022/01/10 19:53:24;;;;;;;20.33;9.17;;;;;3.80;97088.00;;;;8306466;28;20266;-68
2022/01/10 19:57:30;;;;;;;18.37;8.47;;;;;3.80;97083.00;;;;8306305;28;20324;-69
2022/01/10 20:01:33;;;;;;;16.40;8.13;;;;;3.80;97094.00;;;;8310505;28;20315;-69
2022/01/10 20:05:38;;;;;;;15.07;7.93;;;;;3.70;97085.00;;;;8303345;28;20230;-69
2022/01/10 20:09:42;;;;;;;22.67;9.73;;;;;3.70;97094.00;;;;8301361;28;20323;-68
2022/01/10 20:13:45;;;;;;;20.20;9.03;;;;;3.70;97097.00;;;;8305545;28;20267;-68
2022/01/10 20:17:48;;;;;;;21.07;8.80;;;;;3.70;97112.00;;;;8310927;28;20317;-69
2022/01/10 20:21:53;;;;;;;18.63;9.00;;;;;3.70;97109.00;;;;8304709;28;20255;-70
2022/01/10 20:25:56;;;;;;;19.70;10.17;;;;;3.70;97114.00;;;;8301707;28;20235;-68
2022/01/10 20:29:59;;;;;;;18.53;8.57;;;;;3.70;97103.00;;;;8311130;28;20843;-68